createdAt,value
2022-12-15T00:00:23.679Z,-3.82
2022-12-15T00:05:44.231Z,-3.84
2022-12-15T00:11:12.839Z,-3.80
2022-12-15T00:16:33.429Z,-3.82
2022-12-15T00:21:53.747Z,-3.82
2022-12-15T00:27:14.084Z,-3.83
2022-12-15T00:32:34.380Z,-3.83
2022-12-15T00:37:54.720Z,-3.88
2022-12-15T00:42:56.738Z,-3.93
2022-12-15T00:47:58.581Z,-4.02
2022-12-15T00:53:18.997Z,-4.08
2022-12-15T00:58:39.456Z,-4.14
2022-12-15T01:03:59.832Z,-4.19
2022-12-15T01:09:21.387Z,-4.25
2022-12-15T01:14:42.204Z,-4.30
2022-12-15T01:20:02.345Z,-4.33
2022-12-15T01:25:06.323Z,-4.36
2022-12-15T01:30:09.716Z,-4.39
2022-12-15T01:35:12.071Z,-4.42
2022-12-15T01:40:36.193Z,-4.45
2022-12-15T01:45:48.922Z,-4.46
2022-12-15T01:51:13.925Z,-4.47
2022-12-15T01:56:17.924Z,-4.49
2022-12-15T02:01:19.950Z,-4.50
2022-12-15T02:06:22.653Z,-4.51
2022-12-15T02:11:30.366Z,-4.56
2022-12-15T02:16:58.307Z,-4.57
2022-12-15T02:22:18.294Z,-4.59
2022-12-15T02:27:44.423Z,-4.58
2022-12-15T02:33:21.712Z,-4.57
2022-12-15T02:38:37.182Z,-4.58
2022-12-15T02:43:39.713Z,-4.61
2022-12-15T02:49:08.040Z,-4.64
2022-12-15T02:54:31.733Z,-4.62
2022-12-15T02:59:33.406Z,-4.61
2022-12-15T03:04:35.463Z,-4.61
2022-12-15T03:09:37.303Z,-4.57
2022-12-15T03:14:39.278Z,-4.52
2022-12-15T03:19:41.293Z,-4.45
2022-12-15T03:24:43.557Z,-4.27
2022-12-15T03:29:45.561Z,-4.14
2022-12-15T03:34:47.590Z,-4.01
2022-12-15T03:39:49.768Z,-3.91
2022-12-15T03:44:51.625Z,-3.81
2022-12-15T03:49:53.333Z,-3.73
2022-12-15T03:54:55.132Z,-3.68
2022-12-15T03:59:57.106Z,-3.63
2022-12-15T04:04:59.162Z,-3.59
2022-12-15T04:10:00.998Z,-3.58
2022-12-15T04:15:02.882Z,-3.55
2022-12-15T04:20:11.831Z,-3.53
2022-12-15T04:25:36.046Z,-3.54
2022-12-15T04:31:01.162Z,-3.56
2022-12-15T04:36:30.775Z,-3.62
2022-12-15T04:41:54.727Z,-3.64
2022-12-15T04:47:15.237Z,-3.70
2022-12-15T04:52:38.449Z,-3.78
2022-12-15T04:57:59.006Z,-3.83
2022-12-15T05:03:26.634Z,-3.84
2022-12-15T05:08:47.208Z,-3.87
2022-12-15T05:14:10.909Z,-3.85
2022-12-15T05:19:31.119Z,-3.85
2022-12-15T05:24:51.996Z,-3.85
2022-12-15T05:30:12.455Z,-3.88
2022-12-15T05:35:14.556Z,-3.90
2022-12-15T05:40:22.363Z,-3.93
2022-12-15T05:45:24.328Z,-3.98
2022-12-15T05:50:26.336Z,-4.01
2022-12-15T05:55:28.333Z,-4.04
2022-12-15T06:00:30.364Z,-4.10
2022-12-15T06:05:32.264Z,-4.13
2022-12-15T06:10:34.068Z,-4.17
2022-12-15T06:15:39.164Z,-4.20
2022-12-15T06:20:41.058Z,-4.26
2022-12-15T06:25:42.898Z,-4.30
2022-12-15T06:30:44.723Z,-4.28
2022-12-15T06:35:46.569Z,-4.28
2022-12-15T06:41:01.902Z,-4.25
2022-12-15T06:46:04.586Z,-4.24
2022-12-15T06:51:13.324Z,-4.20
2022-12-15T06:56:23.204Z,-4.17
2022-12-15T07:01:28.279Z,-4.12
2022-12-15T07:06:37.706Z,-4.15
2022-12-15T07:11:40.725Z,-4.14
2022-12-15T07:16:42.746Z,-4.14
2022-12-15T07:21:45.175Z,-4.14
2022-12-15T07:26:49.081Z,-4.16
2022-12-15T07:31:51.140Z,-4.15
2022-12-15T07:36:53.216Z,-4.15
2022-12-15T07:41:55.045Z,-4.14
2022-12-15T07:46:56.997Z,-4.13
2022-12-15T07:51:58.982Z,-4.10
2022-12-15T07:57:02.766Z,-4.07
2022-12-15T08:02:05.205Z,-4.00
2022-12-15T08:07:09.183Z,-3.94
2022-12-15T08:12:10.940Z,-3.91
2022-12-15T08:17:13.309Z,-3.84
2022-12-15T08:22:15.748Z,-3.79
2022-12-15T08:27:17.620Z,-3.73
2022-12-15T08:32:19.562Z,-3.66
2022-12-15T08:37:21.449Z,-3.59
2022-12-15T08:42:48.439Z,-3.50
2022-12-15T08:47:50.264Z,-3.39
2022-12-15T08:53:21.510Z,-3.21
2022-12-15T08:58:14.548Z,-3.07
2022-12-15T09:03:16.437Z,-3.04
2022-12-15T09:08:18.602Z,-2.97
2022-12-15T09:13:21.016Z,-2.77
2022-12-15T09:18:22.936Z,-2.46
2022-12-15T09:23:25.095Z,-2.35
2022-12-15T09:28:28.190Z,-2.11
2022-12-15T09:33:30.593Z,-1.96
2022-12-15T09:38:40.553Z,-1.92
2022-12-15T09:44:05.428Z,-1.85
2022-12-15T09:49:27.885Z,-1.80
2022-12-15T09:54:34.081Z,-1.82
2022-12-15T09:59:44.563Z,-1.79
2022-12-15T10:04:55.793Z,-1.76
2022-12-15T10:09:58.248Z,-1.67
2022-12-15T10:15:23.186Z,-1.60
2022-12-15T10:20:32.335Z,-1.49
2022-12-15T10:25:34.214Z,-1.26
2022-12-15T10:30:42.778Z,-1.09
2022-12-15T10:35:44.861Z,-1.00
2022-12-15T10:40:58.465Z,-0.95
2022-12-15T10:46:19.020Z,-0.88
2022-12-15T10:51:37.277Z,-0.85
2022-12-15T10:56:57.456Z,-0.81
2022-12-15T11:02:24.474Z,-0.77
2022-12-15T11:07:39.206Z,-0.73
2022-12-15T11:12:58.335Z,-0.70
2022-12-15T11:18:22.159Z,-0.66
2022-12-15T11:23:50.340Z,-0.79
2022-12-15T11:28:58.935Z,-1.01
2022-12-15T11:34:00.945Z,-1.14
2022-12-15T11:39:16.419Z,-1.26
2022-12-15T11:44:28.078Z,-1.37
2022-12-15T11:50:01.838Z,-1.45
2022-12-15T11:55:29.548Z,-1.51
2022-12-15T12:00:42.603Z,-1.49
2022-12-15T12:05:59.700Z,-1.48
2022-12-15T12:11:29.134Z,-1.56
2022-12-15T12:16:49.250Z,-1.67
2022-12-15T12:21:59.178Z,-1.69
2022-12-15T12:27:09.018Z,-1.70
2022-12-15T12:32:40.609Z,-1.70
2022-12-15T12:37:51.551Z,-1.67
2022-12-15T12:42:54.888Z,-1.63
2022-12-15T12:48:03.360Z,-1.59
2022-12-15T12:53:05.375Z,-1.58
2022-12-15T12:58:34.324Z,-1.54
2022-12-15T13:03:39.127Z,-1.59
2022-12-15T13:08:52.864Z,-1.65
2022-12-15T13:13:56.109Z,-1.71
2022-12-15T13:19:04.795Z,-1.75
2022-12-15T13:24:30.858Z,-1.77
2022-12-15T13:29:34.253Z,-1.82
2022-12-15T13:34:40.880Z,-1.85
2022-12-15T13:39:55.629Z,-1.91
2022-12-15T13:45:13.834Z,-1.94
2022-12-15T13:50:29.983Z,-1.96
2022-12-15T13:55:37.322Z,-1.96
2022-12-15T14:00:48.603Z,-1.99
2022-12-15T14:05:55.552Z,-2.02
2022-12-15T14:11:22.537Z,-2.08
2022-12-15T14:16:27.485Z,-2.13
2022-12-15T14:21:30.494Z,-2.20
2022-12-15T14:26:35.396Z,-2.31
2022-12-15T14:31:42.853Z,-2.41
2022-12-15T14:36:46.242Z,-2.51
2022-12-15T14:41:54.630Z,-2.59
2022-12-15T14:46:57.180Z,-2.69
2022-12-15T14:52:03.228Z,-2.77
2022-12-15T14:57:15.880Z,-2.84
2022-12-15T15:02:23.087Z,-2.95
2022-12-15T15:07:26.834Z,-3.03
2022-12-15T15:12:44.963Z,-3.10
2022-12-15T15:17:51.174Z,-3.18
2022-12-15T15:23:08.825Z,-3.27
2022-12-15T15:28:21.879Z,-3.34
2022-12-15T15:33:25.336Z,-3.41
2022-12-15T15:38:36.207Z,-3.47
2022-12-15T15:43:38.424Z,-3.54
2022-12-15T15:48:50.429Z,-3.59
2022-12-15T15:53:58.128Z,-3.60
2022-12-15T15:59:09.963Z,-3.61
2022-12-15T16:04:14.905Z,-3.61
2022-12-15T16:09:17.306Z,-3.67
2022-12-15T16:14:19.247Z,-3.71
2022-12-15T16:19:21.263Z,-3.74
2022-12-15T16:24:23.134Z,-3.77
2022-12-15T16:29:33.976Z,-3.79
2022-12-15T16:34:36.635Z,-3.85
2022-12-15T16:39:49.399Z,-3.86
2022-12-15T16:44:51.394Z,-3.88
2022-12-15T16:49:53.347Z,-3.92
2022-12-15T16:54:57.147Z,-3.96
2022-12-15T16:59:59.045Z,-3.98
2022-12-15T17:05:00.801Z,-4.00
2022-12-15T17:10:03.583Z,-4.03
2022-12-15T17:15:16.878Z,-4.05
2022-12-15T17:20:30.508Z,-4.09
2022-12-15T17:31:06.736Z,-4.16
2022-12-15T17:36:17.667Z,-4.20
2022-12-15T17:47:58.146Z,-4.26
2022-12-15T17:53:03.364Z,-4.19
2022-12-15T17:58:35.735Z,-4.11
2022-12-15T18:03:40.810Z,-4.06
2022-12-15T18:08:45.764Z,-3.95
2022-12-15T18:13:52.408Z,-3.82
2022-12-15T18:18:56.737Z,-3.72
2022-12-15T18:24:00.377Z,-3.66
2022-12-15T18:29:15.316Z,-3.59
2022-12-15T18:34:22.939Z,-3.52
2022-12-15T18:39:27.190Z,-3.46
2022-12-15T18:44:32.222Z,-3.43
2022-12-15T18:49:37.484Z,-3.38
2022-12-15T18:54:45.619Z,-3.38
2022-12-15T18:59:47.444Z,-3.38
2022-12-15T19:04:49.495Z,-3.34
2022-12-15T19:09:51.534Z,-3.34
2022-12-15T19:14:55.165Z,-3.38
2022-12-15T19:20:17.564Z,-3.39
2022-12-15T19:25:25.834Z,-3.35
2022-12-15T19:30:30.585Z,-3.33
2022-12-15T19:35:33.913Z,-3.29
2022-12-15T19:40:37.795Z,-3.23
2022-12-15T19:45:39.622Z,-3.20
2022-12-15T19:50:42.616Z,-3.26
2022-12-15T19:55:44.596Z,-3.30
2022-12-15T20:00:46.497Z,-3.30
2022-12-15T20:05:50.978Z,-3.26
2022-12-15T20:10:54.070Z,-3.19
2022-12-15T20:15:56.291Z,-3.15
2022-12-15T20:20:59.464Z,-3.14
2022-12-15T20:26:01.375Z,-3.10
2022-12-15T20:31:03.647Z,-3.11
2022-12-15T20:36:13.311Z,-3.24
2022-12-15T20:41:25.134Z,-3.35
2022-12-15T20:46:36.071Z,-3.42
2022-12-15T20:51:38.224Z,-3.44
2022-12-15T20:56:40.128Z,-3.49
2022-12-15T21:01:43.325Z,-3.51
2022-12-15T21:06:47.606Z,-3.48
2022-12-15T21:11:55.187Z,-3.42
2022-12-15T21:16:58.149Z,-3.36
2022-12-15T21:22:01.066Z,-3.33
2022-12-15T21:27:04.209Z,-3.33
2022-12-15T21:32:06.138Z,-3.35
2022-12-15T21:37:25.717Z,-3.34
2022-12-15T21:42:27.813Z,-3.37
2022-12-15T21:47:52.080Z,-3.40
2022-12-15T21:52:54.543Z,-3.39
2022-12-15T21:57:57.471Z,-3.37
2022-12-15T22:02:59.316Z,-3.37
2022-12-15T22:08:13.088Z,-3.39
2022-12-15T22:13:20.660Z,-3.39
2022-12-15T22:18:23.631Z,-3.33
2022-12-15T22:23:25.467Z,-3.31
2022-12-15T22:28:28.708Z,-3.32
2022-12-15T22:33:31.764Z,-3.33
2022-12-15T22:38:34.954Z,-3.29
2022-12-15T22:43:41.637Z,-3.26
2022-12-15T22:48:47.437Z,-3.23
2022-12-15T22:53:49.288Z,-3.22
2022-12-15T22:59:08.569Z,-3.20
2022-12-15T23:04:10.604Z,-3.19
2022-12-15T23:09:12.474Z,-3.20
2022-12-15T23:14:16.842Z,-3.20
2022-12-15T23:19:24.375Z,-3.19
2022-12-15T23:24:26.963Z,-3.17
2022-12-15T23:29:29.536Z,-3.20
2022-12-15T23:34:31.713Z,-3.19
2022-12-15T23:39:34.878Z,-3.24
2022-12-15T23:44:37.749Z,-3.27
2022-12-15T23:49:39.984Z,-3.28
2022-12-15T23:54:43.363Z,-3.30
2022-12-15T23:59:45.088Z,-3.27
